createdAt,value
2019-01-25T00:01:09.215Z,34.55
2019-01-25T00:03:37.551Z,35.00
2019-01-25T00:06:06.464Z,34.27
2019-01-25T00:08:34.263Z,34.73
2019-01-25T00:11:02.053Z,35.30
2019-01-25T00:13:29.799Z,35.38
2019-01-25T00:15:57.775Z,34.20
2019-01-25T00:18:26.083Z,34.83
2019-01-25T00:20:53.873Z,36.13
2019-01-25T00:23:21.540Z,35.05
2019-01-25T00:25:49.321Z,36.08
2019-01-25T00:28:17.074Z,35.98
2019-01-25T00:30:44.847Z,36.17
2019-01-25T00:33:12.508Z,37.78
2019-01-25T00:35:40.307Z,36.90
2019-01-25T00:38:08.331Z,37.08
2019-01-25T00:40:36.107Z,35.33
2019-01-25T00:43:04.152Z,34.78
2019-01-25T00:45:31.981Z,34.92
2019-01-25T00:48:00.050Z,34.33
2019-01-25T00:50:27.851Z,35.17
2019-01-25T00:52:55.610Z,34.38
2019-01-25T00:55:23.393Z,33.88
2019-01-25T00:57:51.161Z,33.48
2019-01-25T01:00:21.914Z,35.13
2019-01-25T01:02:50.049Z,35.00
2019-01-25T01:05:18.968Z,35.60
2019-01-25T01:07:47.879Z,34.53
2019-01-25T01:10:15.785Z,33.18
2019-01-25T01:12:43.734Z,32.53
2019-01-25T01:15:11.882Z,33.02
2019-01-25T01:17:39.648Z,33.50
2019-01-25T01:20:11.175Z,33.80
2019-01-25T01:22:39.584Z,34.48
2019-01-25T01:25:09.916Z,34.53
2019-01-25T01:27:37.677Z,34.53
2019-01-25T01:30:08.600Z,33.88
2019-01-25T01:32:36.636Z,34.75
2019-01-25T01:35:06.199Z,33.33
2019-01-25T01:37:34.248Z,36.45
2019-01-25T01:40:03.603Z,34.70
2019-01-25T01:42:31.674Z,34.95
2019-01-25T01:44:59.483Z,34.53
2019-01-25T01:47:27.305Z,34.43
2019-01-25T01:49:55.144Z,34.18
2019-01-25T01:52:22.799Z,32.45
2019-01-25T01:54:50.766Z,34.10
2019-01-25T01:57:18.529Z,34.00
2019-01-25T01:59:46.368Z,35.65
2019-01-25T02:02:14.348Z,33.92
2019-01-25T02:04:42.143Z,34.83
2019-01-25T02:07:09.891Z,34.85
2019-01-25T02:09:37.549Z,35.35
2019-01-25T02:12:05.329Z,33.73
2019-01-25T02:14:33.359Z,34.95
2019-01-25T02:17:01.383Z,33.28
2019-01-25T02:19:29.119Z,33.02
2019-01-25T02:21:57.177Z,33.67
2019-01-25T02:24:24.927Z,33.95
2019-01-25T02:26:52.780Z,34.50
2019-01-25T02:29:20.528Z,33.85
2019-01-25T02:31:48.487Z,34.50
2019-01-25T02:34:16.295Z,33.83
2019-01-25T02:36:44.066Z,32.25
2019-01-25T02:39:11.815Z,33.78
2019-01-25T02:41:39.763Z,33.83
2019-01-25T02:44:07.771Z,34.88
2019-01-25T02:46:35.473Z,33.48
2019-01-25T02:49:03.746Z,33.63
2019-01-25T02:51:31.743Z,35.38
2019-01-25T02:53:59.761Z,35.33
2019-01-25T02:56:27.440Z,33.98
2019-01-25T02:58:55.024Z,34.78
2019-01-25T03:01:22.693Z,34.88
2019-01-25T03:03:50.347Z,33.48
2019-01-25T03:06:18.133Z,34.27
2019-01-25T03:08:46.748Z,34.67
2019-01-25T03:11:14.461Z,33.45
2019-01-25T03:13:42.044Z,35.05
2019-01-25T03:16:10.106Z,34.95
2019-01-25T03:18:38.019Z,34.27
2019-01-25T03:21:05.801Z,35.35
2019-01-25T03:23:33.557Z,34.15
2019-01-25T03:26:01.489Z,34.60
2019-01-25T03:28:29.577Z,34.30
2019-01-25T03:30:57.342Z,35.40
2019-01-25T03:33:25.036Z,32.80
2019-01-25T03:35:52.778Z,34.27
2019-01-25T03:38:20.526Z,36.75
2019-01-25T03:40:54.987Z,34.50
2019-01-25T03:43:17.855Z,33.83
2019-01-25T03:45:45.642Z,36.17
2019-01-25T03:48:13.540Z,35.78
2019-01-25T03:50:41.309Z,32.88
2019-01-25T03:53:08.894Z,35.95
2019-01-25T03:55:36.632Z,35.52
2019-01-25T03:58:04.793Z,35.40
2019-01-25T04:00:32.570Z,37.38
2019-01-25T04:03:00.531Z,39.18
2019-01-25T04:05:28.380Z,35.13
2019-01-25T04:07:56.405Z,34.85
2019-01-25T04:10:26.417Z,37.17
2019-01-25T04:12:55.230Z,32.63
2019-01-25T04:15:29.249Z,36.90
2019-01-25T04:17:57.053Z,34.73
2019-01-25T04:20:24.906Z,36.10
2019-01-25T04:22:53.024Z,36.83
2019-01-25T04:25:21.511Z,34.08
2019-01-25T04:27:49.457Z,34.55
2019-01-25T04:30:29.042Z,34.33
2019-01-25T04:32:56.937Z,36.28
2019-01-25T04:35:24.679Z,36.00
2019-01-25T04:37:52.765Z,34.90
2019-01-25T04:40:21.223Z,34.98
2019-01-25T04:42:49.529Z,34.90
2019-01-25T04:45:18.446Z,34.65
2019-01-25T04:47:46.323Z,34.13
2019-01-25T04:50:19.553Z,33.73
2019-01-25T04:52:47.338Z,35.40
2019-01-25T04:55:24.333Z,35.88
2019-01-25T04:57:52.265Z,34.48
2019-01-25T05:00:21.016Z,35.17
2019-01-25T05:02:58.469Z,33.02
2019-01-25T05:05:26.710Z,34.23
2019-01-25T05:08:05.376Z,34.83
2019-01-25T05:10:33.115Z,34.48
2019-01-25T05:13:01.167Z,35.55
2019-01-25T05:15:28.934Z,33.40
2019-01-25T05:17:56.737Z,34.63
2019-01-25T05:20:24.764Z,33.55
2019-01-25T05:22:57.482Z,34.20
2019-01-25T05:25:26.285Z,35.52
2019-01-25T05:27:54.418Z,35.08
2019-01-25T05:30:22.350Z,35.48
2019-01-25T05:32:50.129Z,33.83
2019-01-25T05:35:17.876Z,35.43
2019-01-25T05:37:45.663Z,35.17
2019-01-25T05:40:22.260Z,36.85
2019-01-25T05:42:50.044Z,38.92
2019-01-25T05:45:17.780Z,35.48
2019-01-25T05:47:45.555Z,35.10
2019-01-25T05:50:13.762Z,34.05
2019-01-25T05:52:41.581Z,33.95
2019-01-25T05:55:14.945Z,34.23
2019-01-25T05:57:42.905Z,34.30
2019-01-25T06:00:11.293Z,34.33
2019-01-25T06:02:39.387Z,33.67
2019-01-25T06:05:07.429Z,42.55
2019-01-25T06:07:35.193Z,35.48
2019-01-25T06:10:04.289Z,44.90
2019-01-25T06:12:32.039Z,80.30
2019-01-25T06:14:59.844Z,46.83
2019-01-25T06:17:27.752Z,42.85
2019-01-25T06:19:55.529Z,36.45
2019-01-25T06:22:23.284Z,37.85
2019-01-25T06:24:51.066Z,36.30
2019-01-25T06:27:18.848Z,36.15
2019-01-25T06:29:46.918Z,37.98
2019-01-25T06:32:14.952Z,33.83
2019-01-25T06:34:42.908Z,36.65
2019-01-25T06:37:10.686Z,35.00
2019-01-25T06:39:38.269Z,36.98
2019-01-25T06:42:06.028Z,36.42
2019-01-25T06:44:33.712Z,35.70
2019-01-25T06:47:01.416Z,35.10
2019-01-25T06:49:29.556Z,36.60
2019-01-25T06:51:57.298Z,36.20
2019-01-25T06:54:25.296Z,36.65
2019-01-25T06:56:52.904Z,36.63
2019-01-25T06:59:23.929Z,37.23
2019-01-25T07:02:17.547Z,36.55
2019-01-25T07:04:45.219Z,35.17
2019-01-25T07:07:22.129Z,37.55
2019-01-25T07:09:49.927Z,36.00
2019-01-25T07:12:18.076Z,37.50
2019-01-25T07:14:45.556Z,36.48
2019-01-25T07:17:13.209Z,36.68
2019-01-25T07:19:40.890Z,38.78
2019-01-25T07:22:08.648Z,37.15
2019-01-25T07:24:36.437Z,38.00
2019-01-25T07:27:04.240Z,36.88
2019-01-25T07:29:31.929Z,37.60
2019-01-25T07:31:59.820Z,42.78
2019-01-25T07:34:27.753Z,39.88
2019-01-25T07:36:55.645Z,40.28
2019-01-25T07:39:26.974Z,40.52
2019-01-25T07:41:59.639Z,43.15
2019-01-25T07:44:25.605Z,38.78
2019-01-25T07:46:53.491Z,37.00
2019-01-25T07:49:21.264Z,36.25
2019-01-25T07:51:49.318Z,37.88
2019-01-25T07:54:17.087Z,39.13
2019-01-25T07:56:44.875Z,42.23
2019-01-25T07:59:12.700Z,41.65
2019-01-25T08:01:40.815Z,41.13
2019-01-25T08:04:08.695Z,42.35
2019-01-25T08:06:36.705Z,42.48
2019-01-25T08:09:08.141Z,40.10
2019-01-25T08:11:35.833Z,41.68
2019-01-25T08:14:04.756Z,43.02
2019-01-25T08:16:32.581Z,42.13
2019-01-25T08:19:00.216Z,40.15
2019-01-25T08:21:28.000Z,42.53
2019-01-25T08:23:56.020Z,41.68
2019-01-25T08:26:24.056Z,42.73
2019-01-25T08:28:52.105Z,40.45
2019-01-25T08:31:20.406Z,38.80
2019-01-25T08:33:48.374Z,39.88
2019-01-25T08:36:16.320Z,39.30
2019-01-25T08:38:44.109Z,40.00
2019-01-25T08:41:11.818Z,42.65
2019-01-25T08:43:39.467Z,42.85
2019-01-25T08:46:07.277Z,42.75
2019-01-25T08:48:35.049Z,42.75
2019-01-25T08:51:03.090Z,41.92
2019-01-25T08:53:31.125Z,43.65
2019-01-25T08:55:59.227Z,40.28
2019-01-25T08:58:27.010Z,38.88
2019-01-25T09:00:54.764Z,41.58
2019-01-25T09:03:22.444Z,40.30
2019-01-25T09:05:50.517Z,42.53
2019-01-25T09:08:18.540Z,43.70
2019-01-25T09:10:46.398Z,41.60
2019-01-25T09:13:14.271Z,43.35
2019-01-25T09:15:42.232Z,43.17
2019-01-25T09:18:10.120Z,42.58
2019-01-25T09:20:38.170Z,44.42
2019-01-25T09:23:05.926Z,42.83
2019-01-25T09:25:34.264Z,43.45
2019-01-25T09:28:02.044Z,43.98
2019-01-25T09:30:29.807Z,44.08
2019-01-25T09:32:57.679Z,44.65
2019-01-25T09:35:25.431Z,44.48
2019-01-25T09:37:53.617Z,44.65
2019-01-25T09:40:22.744Z,42.90
2019-01-25T09:42:51.190Z,44.18
2019-01-25T09:45:19.424Z,45.20
2019-01-25T09:47:47.349Z,40.67
2019-01-25T09:50:17.345Z,42.78
2019-01-25T09:52:45.029Z,45.43
2019-01-25T09:55:18.727Z,44.63
2019-01-25T09:57:47.054Z,43.38
2019-01-25T10:00:23.697Z,43.25
2019-01-25T10:02:51.478Z,42.70
2019-01-25T10:05:19.273Z,44.08
2019-01-25T10:07:47.080Z,42.30
2019-01-25T10:10:14.867Z,42.78
2019-01-25T10:12:43.445Z,44.23
2019-01-25T10:15:15.665Z,43.68
2019-01-25T10:17:43.343Z,43.35
2019-01-25T10:20:11.220Z,44.03
2019-01-25T10:22:39.180Z,42.15
2019-01-25T10:25:08.258Z,41.45
2019-01-25T10:27:36.044Z,43.60
2019-01-25T10:30:07.385Z,43.48
2019-01-25T10:32:35.539Z,45.52
2019-01-25T10:35:05.271Z,44.27
2019-01-25T10:37:33.061Z,41.00
2019-01-25T10:40:00.519Z,42.95
2019-01-25T10:42:28.577Z,45.08
2019-01-25T10:44:56.275Z,42.83
2019-01-25T10:47:25.752Z,45.03
2019-01-25T10:49:53.309Z,45.00
2019-01-25T10:52:21.145Z,44.05
2019-01-25T10:54:49.071Z,40.83
2019-01-25T10:57:16.856Z,41.60
2019-01-25T10:59:44.632Z,42.75
2019-01-25T11:02:12.685Z,38.23
2019-01-25T11:04:40.342Z,40.52
2019-01-25T11:07:07.960Z,36.17
2019-01-25T11:09:38.114Z,35.38
2019-01-25T11:12:05.550Z,37.25
2019-01-25T11:14:33.306Z,31.73
2019-01-25T11:17:01.100Z,32.23
2019-01-25T11:19:28.852Z,32.33
2019-01-25T11:21:56.442Z,24.75
2019-01-25T11:24:24.128Z,32.08
2019-01-25T11:26:52.029Z,24.70
2019-01-25T11:29:19.913Z,27.22
2019-01-25T11:31:47.839Z,33.02
2019-01-25T11:34:15.413Z,31.52
2019-01-25T11:36:43.719Z,22.52
2019-01-25T11:39:11.888Z,28.87
2019-01-25T11:41:39.838Z,31.12
2019-01-25T11:44:07.537Z,28.17
2019-01-25T11:46:35.198Z,17.65
2019-01-25T11:49:03.185Z,33.20
2019-01-25T11:51:31.936Z,32.55
2019-01-25T11:53:59.632Z,32.35
2019-01-25T11:56:27.389Z,24.00
2019-01-25T11:58:55.495Z,30.50
2019-01-25T12:01:23.540Z,27.30
2019-01-25T12:03:51.791Z,29.82
2019-01-25T12:06:19.647Z,30.15
2019-01-25T12:08:47.712Z,30.90
2019-01-25T12:11:15.390Z,27.10
2019-01-25T12:13:42.996Z,21.85
2019-01-25T12:16:11.764Z,25.88
2019-01-25T12:18:39.491Z,25.30
2019-01-25T12:21:07.240Z,25.50
2019-01-25T12:23:35.036Z,27.55
2019-01-25T12:26:02.822Z,27.67
2019-01-25T12:28:30.911Z,29.67
2019-01-25T12:30:58.843Z,29.90
2019-01-25T12:33:26.448Z,29.37
2019-01-25T12:35:54.198Z,32.33
2019-01-25T12:38:21.968Z,23.80
2019-01-25T12:40:49.741Z,25.92
2019-01-25T12:43:23.871Z,25.72
2019-01-25T12:45:50.169Z,26.90
2019-01-25T12:48:16.859Z,21.07
2019-01-25T12:51:03.279Z,22.20
2019-01-25T12:53:32.131Z,26.65
2019-01-25T12:55:59.875Z,25.60
2019-01-25T12:58:27.732Z,26.10
2019-01-25T13:00:55.490Z,21.82
2019-01-25T13:03:23.355Z,22.55
2019-01-25T13:05:51.640Z,24.70
2019-01-25T13:08:19.372Z,15.80
2019-01-25T13:10:47.126Z,18.62
2019-01-25T13:13:14.933Z,19.57
2019-01-25T13:15:42.692Z,13.18
2019-01-25T13:18:10.513Z,17.00
2019-01-25T13:20:39.613Z,15.95
2019-01-25T13:23:07.433Z,17.70
2019-01-25T13:25:35.235Z,17.37
2019-01-25T13:28:03.084Z,18.40
2019-01-25T13:30:30.972Z,14.00
2019-01-25T13:32:59.726Z,20.27
2019-01-25T13:35:27.822Z,14.45
2019-01-25T13:37:55.583Z,11.38
2019-01-25T13:40:23.788Z,16.20
2019-01-25T13:42:52.018Z,19.23
2019-01-25T13:45:21.787Z,15.48
2019-01-25T13:47:49.765Z,13.58
2019-01-25T13:50:20.668Z,21.85
2019-01-25T13:52:48.338Z,20.77
2019-01-25T13:55:17.080Z,12.98
2019-01-25T13:57:44.954Z,17.98
2019-01-25T14:00:22.970Z,17.32
2019-01-25T14:02:51.998Z,17.65
2019-01-25T14:05:19.929Z,15.68
2019-01-25T14:07:47.785Z,16.30
2019-01-25T14:10:20.103Z,14.78
2019-01-25T14:12:48.135Z,15.48
2019-01-25T14:15:15.967Z,13.40
2019-01-25T14:17:43.769Z,17.90
2019-01-25T14:20:22.948Z,6.33
2019-01-25T14:22:44.972Z,18.07
2019-01-25T14:25:12.956Z,14.47
2019-01-25T14:27:40.736Z,12.68
2019-01-25T14:30:17.693Z,17.35
2019-01-25T14:32:45.453Z,14.65
2019-01-25T14:35:13.160Z,8.58
2019-01-25T14:37:41.225Z,14.28
2019-01-25T14:40:09.269Z,13.38
2019-01-25T14:42:36.939Z,12.05
2019-01-25T14:45:05.513Z,11.83
2019-01-25T14:47:33.512Z,11.88
2019-01-25T14:50:01.580Z,14.10
2019-01-25T14:52:29.709Z,17.00
2019-01-25T14:54:57.429Z,17.67
2019-01-25T14:57:25.260Z,15.05
2019-01-25T14:59:52.924Z,16.62
2019-01-25T15:02:20.953Z,16.70
2019-01-25T15:04:48.776Z,16.57
2019-01-25T15:07:16.480Z,15.55
2019-01-25T15:09:44.088Z,17.25
2019-01-25T15:12:11.862Z,16.12
2019-01-25T15:14:39.572Z,8.85
2019-01-25T15:17:07.360Z,16.67
2019-01-25T15:19:35.148Z,14.83
2019-01-25T15:22:02.896Z,16.40
2019-01-25T15:24:30.620Z,16.35
2019-01-25T15:26:58.448Z,18.00
2019-01-25T15:29:27.157Z,17.57
2019-01-25T15:31:55.804Z,16.27
2019-01-25T15:34:24.595Z,13.70
2019-01-25T15:36:52.167Z,17.32
2019-01-25T15:39:19.969Z,19.10
2019-01-25T15:41:47.716Z,15.60
2019-01-25T15:44:15.178Z,18.02
2019-01-25T15:46:42.914Z,17.07
2019-01-25T15:49:10.672Z,17.17
2019-01-25T15:51:38.544Z,15.93
2019-01-25T15:54:06.204Z,16.50
2019-01-25T15:56:34.565Z,11.75
2019-01-25T15:59:03.611Z,15.15
2019-01-25T16:01:31.849Z,15.08
2019-01-25T16:04:00.011Z,14.00
2019-01-25T16:06:27.615Z,16.25
2019-01-25T16:08:55.639Z,7.33
2019-01-25T16:11:23.430Z,15.00
2019-01-25T16:13:51.328Z,13.15
2019-01-25T16:16:19.079Z,16.40
2019-01-25T16:18:47.007Z,16.17
2019-01-25T16:21:15.087Z,15.70
2019-01-25T16:23:42.857Z,15.08
2019-01-25T16:26:10.661Z,15.15
2019-01-25T16:28:38.333Z,18.15
2019-01-25T16:31:06.171Z,15.28
2019-01-25T16:33:33.949Z,14.65
2019-01-25T16:36:01.736Z,17.98
2019-01-25T16:38:29.507Z,13.90
2019-01-25T16:40:57.288Z,13.28
2019-01-25T16:43:24.973Z,12.07
2019-01-25T16:45:53.320Z,15.40
2019-01-25T16:48:21.048Z,11.70
2019-01-25T16:50:48.952Z,11.50
2019-01-25T16:53:16.696Z,13.60
2019-01-25T16:55:44.817Z,18.65
2019-01-25T16:58:15.333Z,17.80
2019-01-25T17:00:47.614Z,11.18
2019-01-25T17:03:15.877Z,18.23
2019-01-25T17:05:43.664Z,19.23
2019-01-25T17:08:11.748Z,16.20
2019-01-25T17:10:41.107Z,19.32
2019-01-25T17:13:09.056Z,13.95
2019-01-25T17:15:36.903Z,18.37
2019-01-25T17:18:05.482Z,7.50
2019-01-25T17:23:32.545Z,16.50
2019-01-25T17:26:03.791Z,17.23
2019-01-25T17:28:34.968Z,18.00
2019-01-25T17:31:06.233Z,11.12
2019-01-25T17:33:37.415Z,18.27
2019-01-25T17:36:08.984Z,19.05
2019-01-25T17:38:40.226Z,18.73
2019-01-25T17:41:11.812Z,20.10
2019-01-25T17:43:43.061Z,17.27
2019-01-25T17:46:14.435Z,15.55
2019-01-25T17:48:45.689Z,19.60
2019-01-25T17:51:17.083Z,17.35
2019-01-25T17:53:48.736Z,17.45
2019-01-25T17:56:21.112Z,19.07
2019-01-25T17:58:52.287Z,18.90
2019-01-25T18:01:24.008Z,13.83
2019-01-25T18:03:55.275Z,16.93
2019-01-25T18:06:26.612Z,18.07
2019-01-25T18:08:57.866Z,15.18
2019-01-25T18:11:29.388Z,15.83
2019-01-25T18:14:00.687Z,16.12
2019-01-25T18:16:31.972Z,16.60
2019-01-25T18:19:03.436Z,13.22
2019-01-25T18:21:35.084Z,12.80
2019-01-25T18:24:06.509Z,15.90
2019-01-25T18:26:38.200Z,14.98
2019-01-25T18:29:58.243Z,14.95
2019-01-25T18:32:29.644Z,14.87
2019-01-25T18:35:01.177Z,15.53
2019-01-25T18:37:33.798Z,14.28
2019-01-25T18:40:08.854Z,12.53
2019-01-25T18:42:40.107Z,16.35
2019-01-25T18:45:11.369Z,13.03
2019-01-25T18:47:43.068Z,14.15
2019-01-25T18:50:15.211Z,12.50
2019-01-25T18:52:49.743Z,14.95
2019-01-25T18:55:22.502Z,13.68
2019-01-25T18:57:54.160Z,13.72
2019-01-25T19:00:26.090Z,14.75
2019-01-25T19:02:57.612Z,14.98
2019-01-25T19:05:29.258Z,13.60
2019-01-25T19:08:00.933Z,15.80
2019-01-25T19:10:32.466Z,13.05
2019-01-25T19:13:03.748Z,14.98
2019-01-25T19:15:35.039Z,16.45
2019-01-25T19:18:06.359Z,13.90
2019-01-25T19:20:37.935Z,14.20
2019-01-25T19:23:09.311Z,12.40
2019-01-25T19:25:40.573Z,12.53
2019-01-25T19:28:12.282Z,15.40
2019-01-25T19:30:45.769Z,14.78
2019-01-25T19:33:17.532Z,11.55
2019-01-25T19:35:48.776Z,16.27
2019-01-25T19:38:22.532Z,15.58
2019-01-25T19:40:53.894Z,13.90
2019-01-25T19:43:25.408Z,14.93
2019-01-25T19:45:57.393Z,17.15
2019-01-25T19:48:29.413Z,15.32
2019-01-25T19:51:01.482Z,15.30
2019-01-25T19:53:33.143Z,14.95
2019-01-25T19:56:05.185Z,14.77
2019-01-25T19:58:36.651Z,16.23
2019-01-25T20:01:07.901Z,17.73
2019-01-25T20:03:39.452Z,16.25
2019-01-25T20:06:10.646Z,17.73
2019-01-25T20:08:43.286Z,14.53
2019-01-25T20:11:14.657Z,18.35
2019-01-25T20:13:46.376Z,18.05
2019-01-25T20:16:18.024Z,18.48
2019-01-25T20:18:50.260Z,17.20
2019-01-25T20:21:21.846Z,17.17
2019-01-25T20:23:53.003Z,16.80
2019-01-25T20:26:24.389Z,17.67
2019-01-25T20:28:55.617Z,16.52
2019-01-25T20:31:27.441Z,16.62
2019-01-25T20:33:59.101Z,19.62
2019-01-25T20:36:30.460Z,17.17
2019-01-25T20:39:02.402Z,19.62
2019-01-25T20:41:35.570Z,20.68
2019-01-25T20:44:07.149Z,18.90
2019-01-25T20:46:39.318Z,20.08
2019-01-25T20:49:10.959Z,19.30
2019-01-25T20:51:45.154Z,20.37
2019-01-25T20:54:16.722Z,20.32
2019-01-25T20:56:47.911Z,18.15
2019-01-25T20:59:19.067Z,19.75
2019-01-25T21:01:50.204Z,19.92
2019-01-25T21:04:21.422Z,17.25
2019-01-25T21:06:52.964Z,19.52
2019-01-25T21:09:24.249Z,19.00
2019-01-25T21:11:55.360Z,21.30
2019-01-25T21:14:27.837Z,17.92
2019-01-25T21:16:59.271Z,22.80
2019-01-25T21:19:30.762Z,20.48
2019-01-25T21:22:02.092Z,22.27
2019-01-25T21:24:33.303Z,18.45
2019-01-25T21:27:04.987Z,21.30
2019-01-25T21:29:36.513Z,19.23
2019-01-25T21:32:07.762Z,23.65
2019-01-25T21:34:38.984Z,24.85
2019-01-25T21:37:10.275Z,22.35
2019-01-25T21:39:42.126Z,25.27
2019-01-25T21:42:13.308Z,25.25
2019-01-25T21:44:45.012Z,25.10
2019-01-25T21:47:16.256Z,25.43
2019-01-25T21:49:47.468Z,21.15
2019-01-25T21:52:18.737Z,20.82
2019-01-25T21:54:50.311Z,25.32
2019-01-25T21:57:21.560Z,23.70
2019-01-25T21:59:53.111Z,23.75
2019-01-25T22:02:24.365Z,23.50
2019-01-25T22:04:56.327Z,24.57
2019-01-25T22:07:27.515Z,22.40
2019-01-25T22:09:59.024Z,23.05
2019-01-25T22:12:30.573Z,23.42
2019-01-25T22:15:02.277Z,23.80
2019-01-25T22:17:33.534Z,23.20
2019-01-25T22:20:07.993Z,20.08
2019-01-25T22:22:39.260Z,21.48
2019-01-25T22:25:11.200Z,20.92
2019-01-25T22:27:42.859Z,20.27
2019-01-25T22:30:18.714Z,20.55
2019-01-25T22:32:49.903Z,19.35
2019-01-25T22:35:21.574Z,19.67
2019-01-25T22:37:53.320Z,18.15
2019-01-25T22:40:30.392Z,16.00
2019-01-25T22:43:01.679Z,18.55
2019-01-25T22:45:33.839Z,14.67
2019-01-25T22:48:06.349Z,19.00
2019-01-25T22:50:38.929Z,21.07
2019-01-25T22:53:10.372Z,19.73
2019-01-25T22:55:41.671Z,18.12
2019-01-25T22:58:12.904Z,17.87
2019-01-25T23:01:22.670Z,17.90
2019-01-25T23:04:24.255Z,17.92
2019-01-25T23:07:07.982Z,12.78
2019-01-25T23:09:53.068Z,19.62
2019-01-25T23:12:24.320Z,15.43
2019-01-25T23:14:55.876Z,14.38
2019-01-25T23:17:27.159Z,15.60
2019-01-25T23:19:58.483Z,15.23
2019-01-25T23:22:31.567Z,17.87
2019-01-25T23:25:03.972Z,18.85
2019-01-25T23:27:35.155Z,14.63
2019-01-25T23:30:12.173Z,18.17
2019-01-25T23:32:43.792Z,16.48
2019-01-25T23:35:15.448Z,18.65
2019-01-25T23:37:46.624Z,8.20
2019-01-25T23:40:17.941Z,15.85
2019-01-25T23:42:49.118Z,17.40
2019-01-25T23:45:20.332Z,17.37
2019-01-25T23:47:51.609Z,17.23
2019-01-25T23:50:24.316Z,14.05
2019-01-25T23:52:55.510Z,17.45
2019-01-25T23:55:27.733Z,17.00
2019-01-25T23:57:59.419Z,11.53
